createdAt,value
2019-02-28T00:01:32.792Z,6.46
2019-02-28T00:03:40.442Z,6.46
2019-02-28T00:05:48.155Z,6.47
2019-02-28T00:07:55.942Z,6.42
2019-02-28T00:10:03.552Z,6.37
2019-02-28T00:12:13.515Z,6.33
2019-02-28T00:14:20.472Z,6.27
2019-02-28T00:16:28.116Z,6.27
2019-02-28T00:18:35.801Z,6.29
2019-02-28T00:20:43.430Z,6.26
2019-02-28T00:22:51.044Z,6.24
2019-02-28T00:25:01.213Z,6.20
2019-02-28T00:27:07.991Z,6.25
2019-02-28T00:29:15.521Z,6.20
2019-02-28T00:31:23.117Z,6.15
2019-02-28T00:33:30.955Z,6.24
2019-02-28T00:35:39.238Z,6.22
2019-02-28T00:37:46.927Z,6.20
2019-02-28T00:39:54.629Z,6.16
2019-02-28T00:42:02.272Z,6.15
2019-02-28T00:44:10.013Z,6.15
2019-02-28T00:46:20.522Z,6.18
2019-02-28T00:48:27.940Z,6.18
2019-02-28T00:50:35.389Z,6.25
2019-02-28T00:52:43.048Z,6.20
2019-02-28T00:54:50.832Z,6.13
2019-02-28T00:56:58.463Z,6.22
2019-02-28T00:59:06.129Z,6.28
2019-02-28T01:01:13.798Z,6.23
2019-02-28T01:03:26.501Z,6.16
2019-02-28T01:05:30.846Z,6.17
2019-02-28T01:07:38.371Z,6.15
2019-02-28T01:09:45.973Z,6.18
2019-02-28T01:11:53.730Z,6.12
2019-02-28T01:14:02.351Z,6.11
2019-02-28T01:16:10.182Z,6.11
2019-02-28T01:18:17.941Z,6.14
2019-02-28T01:20:25.735Z,6.10
2019-02-28T01:22:33.489Z,6.02
2019-02-28T01:24:41.302Z,5.99
2019-02-28T01:26:48.926Z,6.04
2019-02-28T01:29:01.508Z,6.02
2019-02-28T01:31:05.491Z,6.05
2019-02-28T01:33:12.555Z,6.06
2019-02-28T01:35:19.562Z,6.00
2019-02-28T01:37:26.824Z,5.99
2019-02-28T01:39:33.971Z,5.99
2019-02-28T01:41:42.342Z,6.05
2019-02-28T01:43:50.017Z,5.98
2019-02-28T01:45:57.005Z,5.96
2019-02-28T01:48:04.745Z,6.01
2019-02-28T01:50:12.900Z,5.94
2019-02-28T01:52:20.709Z,5.99
2019-02-28T01:54:28.505Z,5.97
2019-02-28T01:56:36.991Z,5.98
2019-02-28T01:58:47.697Z,5.91
2019-02-28T02:00:57.404Z,5.90
2019-02-28T02:03:03.987Z,5.89
2019-02-28T02:05:11.222Z,5.88
2019-02-28T02:07:18.252Z,5.77
2019-02-28T02:09:25.964Z,5.81
2019-02-28T02:11:33.724Z,5.83
2019-02-28T02:13:41.417Z,5.72
2019-02-28T02:15:51.278Z,5.79
2019-02-28T02:17:58.462Z,5.86
2019-02-28T02:20:06.555Z,5.76
2019-02-28T02:22:14.197Z,5.76
2019-02-28T02:24:24.389Z,5.74
2019-02-28T02:26:31.165Z,5.69
2019-02-28T02:28:39.035Z,5.71
2019-02-28T02:30:50.518Z,5.76
2019-02-28T02:32:56.199Z,5.72
2019-02-28T02:35:08.132Z,5.72
2019-02-28T02:37:13.126Z,5.70
2019-02-28T02:39:20.836Z,5.68
2019-02-28T02:41:33.387Z,5.65
2019-02-28T02:43:37.748Z,5.68
2019-02-28T02:45:45.552Z,5.70
2019-02-28T02:47:53.047Z,5.73
2019-02-28T02:50:00.693Z,5.75
2019-02-28T02:52:08.459Z,5.65
2019-02-28T02:54:19.655Z,5.62
2019-02-28T02:56:25.421Z,5.63
2019-02-28T02:58:33.102Z,5.63
2019-02-28T03:00:40.798Z,5.61
2019-02-28T03:02:48.456Z,5.60
2019-02-28T03:04:58.464Z,5.62
2019-02-28T03:07:05.534Z,5.61
2019-02-28T03:09:13.327Z,5.53
2019-02-28T03:11:24.744Z,5.60
2019-02-28T03:13:30.125Z,5.57
2019-02-28T03:15:37.932Z,5.53
2019-02-28T03:17:47.497Z,5.54
2019-02-28T03:19:55.031Z,5.57
2019-02-28T03:22:02.627Z,5.49
2019-02-28T03:24:14.641Z,5.51
2019-02-28T03:26:19.578Z,5.49
2019-02-28T03:28:28.165Z,5.42
2019-02-28T03:30:36.910Z,5.46
2019-02-28T03:32:44.700Z,5.40
2019-02-28T03:34:58.065Z,5.40
2019-02-28T03:37:02.771Z,5.39
2019-02-28T03:39:10.850Z,5.46
2019-02-28T03:41:18.482Z,5.47
2019-02-28T03:43:26.261Z,5.47
2019-02-28T03:45:35.256Z,5.54
2019-02-28T03:47:43.032Z,5.49
2019-02-28T03:49:50.823Z,5.52
2019-02-28T03:52:05.394Z,5.50
2019-02-28T03:54:08.062Z,5.45
2019-02-28T03:56:16.073Z,5.48
2019-02-28T03:58:24.113Z,5.42
2019-02-28T04:00:34.012Z,5.41
2019-02-28T04:02:41.669Z,5.46
2019-02-28T04:04:50.452Z,5.40
2019-02-28T04:06:58.308Z,5.49
2019-02-28T04:09:08.894Z,5.45
2019-02-28T04:11:16.795Z,5.45
2019-02-28T04:13:24.247Z,5.45
2019-02-28T04:15:31.872Z,5.44
2019-02-28T04:17:39.685Z,5.44
2019-02-28T04:19:47.295Z,5.40
2019-02-28T04:21:55.042Z,5.38
2019-02-28T04:24:02.816Z,5.40
2019-02-28T04:26:10.590Z,5.38
2019-02-28T04:28:19.060Z,5.32
2019-02-28T04:30:26.829Z,5.36
2019-02-28T04:32:34.623Z,5.25
2019-02-28T04:34:42.300Z,5.28
2019-02-28T04:36:50.020Z,5.21
2019-02-28T04:38:57.908Z,5.18
2019-02-28T04:41:05.523Z,5.13
2019-02-28T04:43:13.152Z,5.15
2019-02-28T04:45:23.306Z,5.21
2019-02-28T04:47:30.245Z,5.15
2019-02-28T04:49:37.961Z,5.11
2019-02-28T04:51:45.340Z,5.08
2019-02-28T04:53:52.948Z,5.08
2019-02-28T04:56:01.514Z,5.04
2019-02-28T04:58:09.190Z,5.03
2019-02-28T05:00:16.916Z,4.97
2019-02-28T05:02:24.524Z,4.95
2019-02-28T05:04:33.222Z,4.97
2019-02-28T05:06:41.515Z,4.97
2019-02-28T05:08:49.201Z,4.95
2019-02-28T05:10:57.002Z,4.95
2019-02-28T05:13:04.772Z,4.94
2019-02-28T05:15:12.968Z,4.97
2019-02-28T05:17:22.282Z,4.97
2019-02-28T05:19:32.269Z,4.88
2019-02-28T05:21:39.511Z,4.84
2019-02-28T05:23:47.231Z,4.96
2019-02-28T05:25:55.023Z,4.91
2019-02-28T05:28:02.721Z,4.89
2019-02-28T05:30:18.100Z,4.90
2019-02-28T05:32:22.422Z,4.88
2019-02-28T05:34:30.115Z,4.84
2019-02-28T05:36:38.803Z,4.81
2019-02-28T05:38:46.670Z,4.78
2019-02-28T05:40:55.524Z,4.74
2019-02-28T05:43:03.183Z,4.72
2019-02-28T05:45:14.493Z,4.70
2019-02-28T05:47:20.870Z,4.76
2019-02-28T05:49:28.526Z,4.78
2019-02-28T05:51:36.218Z,4.74
2019-02-28T05:53:43.891Z,4.72
2019-02-28T05:55:51.617Z,4.71
2019-02-28T05:57:59.236Z,4.75
2019-02-28T06:00:07.579Z,4.76
2019-02-28T06:02:15.353Z,4.74
2019-02-28T06:04:23.259Z,4.74
2019-02-28T06:06:31.003Z,4.77
2019-02-28T06:08:39.155Z,4.77
2019-02-28T06:10:47.752Z,4.81
2019-02-28T06:12:55.606Z,4.78
2019-02-28T06:15:03.809Z,4.79
2019-02-28T06:17:11.763Z,4.86
2019-02-28T06:19:20.315Z,4.84
2019-02-28T06:21:28.069Z,4.90
2019-02-28T06:23:36.247Z,4.93
2019-02-28T06:25:44.124Z,5.03
2019-02-28T06:27:52.050Z,5.17
2019-02-28T06:30:08.750Z,5.27
2019-02-28T06:32:27.385Z,5.32
2019-02-28T06:34:46.028Z,5.46
2019-02-28T06:36:54.081Z,5.57
2019-02-28T06:39:01.730Z,5.62
2019-02-28T06:41:09.908Z,5.70
2019-02-28T06:43:18.742Z,5.72
2019-02-28T06:45:26.983Z,5.74
2019-02-28T06:47:34.644Z,5.80
2019-02-28T06:49:42.274Z,5.82
2019-02-28T06:51:51.334Z,5.85
2019-02-28T06:53:59.786Z,5.82
2019-02-28T06:56:07.631Z,5.81
2019-02-28T06:58:15.267Z,5.90
2019-02-28T07:00:22.908Z,5.95
2019-02-28T07:02:31.428Z,5.98
2019-02-28T07:04:40.040Z,6.01
2019-02-28T07:06:47.876Z,5.98
2019-02-28T07:08:55.971Z,5.95
2019-02-28T07:11:03.870Z,5.95
2019-02-28T07:13:11.938Z,5.94
2019-02-28T07:15:23.296Z,5.96
2019-02-28T07:17:29.273Z,6.01
2019-02-28T07:19:37.133Z,6.08
2019-02-28T07:21:44.794Z,6.16
2019-02-28T07:23:53.322Z,6.20
2019-02-28T07:26:01.076Z,6.25
2019-02-28T07:28:08.920Z,6.24
2019-02-28T07:30:18.538Z,6.29
2019-02-28T07:32:26.713Z,6.31
2019-02-28T07:34:34.408Z,6.41
2019-02-28T07:36:44.756Z,6.49
2019-02-28T07:38:51.400Z,6.58
2019-02-28T07:40:59.368Z,6.59
2019-02-28T07:43:12.003Z,6.68
2019-02-28T07:45:16.939Z,6.69
2019-02-28T07:47:25.464Z,6.76
2019-02-28T07:49:36.781Z,6.79
2019-02-28T07:51:42.907Z,6.78
2019-02-28T07:53:50.443Z,6.74
2019-02-28T07:55:58.219Z,6.72
2019-02-28T07:58:06.045Z,6.80
2019-02-28T08:00:19.570Z,6.77
2019-02-28T08:02:27.269Z,6.83
2019-02-28T08:04:35.028Z,6.93
2019-02-28T08:06:42.785Z,7.03
2019-02-28T08:08:50.569Z,7.07
2019-02-28T08:10:58.505Z,7.10
2019-02-28T08:13:06.396Z,7.19
2019-02-28T08:15:22.277Z,7.30
2019-02-28T08:17:30.551Z,7.35
2019-02-28T08:19:38.399Z,7.46
2019-02-28T08:21:50.197Z,7.52
2019-02-28T08:23:55.440Z,7.58
2019-02-28T08:26:03.127Z,7.66
2019-02-28T08:28:10.870Z,7.59
2019-02-28T08:30:20.728Z,7.67
2019-02-28T08:32:28.577Z,7.80
2019-02-28T08:34:36.495Z,7.70
2019-02-28T08:36:46.897Z,7.59
2019-02-28T08:38:53.487Z,7.76
2019-02-28T08:41:01.186Z,7.78
2019-02-28T08:43:10.560Z,7.61
2019-02-28T08:45:18.360Z,7.66
2019-02-28T08:47:26.180Z,7.69
2019-02-28T08:49:34.012Z,7.80
2019-02-28T08:51:43.232Z,7.81
2019-02-28T08:53:52.187Z,7.88
2019-02-28T08:56:00.005Z,7.94
2019-02-28T08:58:07.832Z,7.80
2019-02-28T09:00:18.238Z,7.95
2019-02-28T09:02:26.043Z,7.83
2019-02-28T09:04:40.961Z,7.86
2019-02-28T09:06:43.101Z,7.92
2019-02-28T09:08:50.839Z,7.79
2019-02-28T09:10:58.672Z,7.89
2019-02-28T09:13:08.615Z,7.99
2019-02-28T09:15:17.417Z,8.03
2019-02-28T09:17:25.217Z,7.86
2019-02-28T09:19:36.153Z,8.16
2019-02-28T09:21:42.434Z,8.15
2019-02-28T09:23:50.238Z,8.14
2019-02-28T09:25:58.186Z,8.31
2019-02-28T09:28:05.990Z,8.30
2019-02-28T09:30:35.519Z,8.28
2019-02-28T09:32:40.107Z,8.23
2019-02-28T09:34:47.883Z,8.34
2019-02-28T09:36:56.811Z,8.29
2019-02-28T09:39:05.734Z,8.41
2019-02-28T09:41:13.511Z,8.41
2019-02-28T09:43:23.949Z,8.51
2019-02-28T09:45:30.974Z,8.40
2019-02-28T09:47:38.659Z,8.55
2019-02-28T09:49:47.159Z,8.50
2019-02-28T09:51:55.798Z,8.49
2019-02-28T09:54:03.581Z,8.69
2019-02-28T09:56:11.373Z,8.76
2019-02-28T09:58:19.291Z,8.84
2019-02-28T10:00:27.751Z,8.96
2019-02-28T10:02:35.532Z,8.98
2019-02-28T10:04:45.392Z,8.87
2019-02-28T10:06:53.095Z,8.93
2019-02-28T10:09:00.908Z,8.96
2019-02-28T10:11:08.440Z,8.94
2019-02-28T10:13:18.294Z,9.06
2019-02-28T10:15:26.176Z,9.26
2019-02-28T10:17:33.912Z,9.17
2019-02-28T10:19:45.793Z,9.21
2019-02-28T10:21:52.169Z,9.26
2019-02-28T10:24:00.026Z,9.38
2019-02-28T10:26:07.891Z,9.31
2019-02-28T10:28:15.560Z,9.26
2019-02-28T10:30:31.293Z,9.46
2019-02-28T10:32:33.326Z,9.46
2019-02-28T10:34:41.264Z,9.67
2019-02-28T10:36:49.032Z,9.86
2019-02-28T10:38:56.863Z,9.87
2019-02-28T10:41:04.711Z,9.88
2019-02-28T10:43:15.479Z,9.97
2019-02-28T10:45:22.048Z,10.15
2019-02-28T10:47:29.850Z,10.04
2019-02-28T10:49:37.577Z,10.15
2019-02-28T10:51:49.590Z,10.21
2019-02-28T10:53:54.954Z,10.19
2019-02-28T10:56:02.540Z,10.39
2019-02-28T10:58:12.423Z,10.04
2019-02-28T11:00:32.780Z,10.12
2019-02-28T11:02:40.283Z,10.12
2019-02-28T11:04:48.104Z,10.18
2019-02-28T11:06:55.801Z,10.27
2019-02-28T11:09:04.636Z,10.17
2019-02-28T11:11:12.493Z,10.16
2019-02-28T11:13:21.006Z,10.32
2019-02-28T11:15:29.031Z,10.23
2019-02-28T11:17:36.676Z,10.77
2019-02-28T11:19:44.434Z,10.52
2019-02-28T11:21:52.233Z,10.45
2019-02-28T11:23:59.729Z,10.64
2019-02-28T11:26:09.514Z,10.70
2019-02-28T11:28:17.253Z,10.72
2019-02-28T11:30:26.082Z,10.50
2019-02-28T11:32:33.779Z,10.48
2019-02-28T11:34:41.652Z,10.77
2019-02-28T11:36:49.411Z,10.78
2019-02-28T11:38:57.179Z,10.60
2019-02-28T11:41:05.111Z,10.68
2019-02-28T11:43:13.193Z,10.73
2019-02-28T11:45:25.318Z,10.53
2019-02-28T11:47:32.627Z,10.43
2019-02-28T11:49:40.471Z,10.33
2019-02-28T11:51:49.410Z,10.23
2019-02-28T11:53:57.764Z,10.26
2019-02-28T11:56:05.859Z,10.41
2019-02-28T11:58:17.732Z,10.49
2019-02-28T12:00:27.706Z,10.54
2019-02-28T12:02:35.812Z,10.42
2019-02-28T12:04:43.543Z,10.41
2019-02-28T12:06:51.160Z,10.26
2019-02-28T12:08:58.786Z,10.17
2019-02-28T12:11:06.713Z,10.27
2019-02-28T12:13:16.472Z,10.31
2019-02-28T12:15:25.392Z,10.48
2019-02-28T12:17:33.184Z,10.38
2019-02-28T12:19:41.003Z,10.32
2019-02-28T12:21:48.695Z,10.22
2019-02-28T12:23:57.363Z,10.39
2019-02-28T12:26:05.825Z,10.51
2019-02-28T12:28:13.473Z,10.43
2019-02-28T12:30:25.200Z,10.49
2019-02-28T12:32:33.371Z,10.54
2019-02-28T12:34:41.053Z,10.64
2019-02-28T12:36:49.451Z,10.45
2019-02-28T12:38:59.338Z,10.68
2019-02-28T12:41:07.374Z,10.65
2019-02-28T12:43:15.251Z,10.78
2019-02-28T12:45:27.007Z,10.61
2019-02-28T12:47:35.587Z,10.74
2019-02-28T12:49:43.357Z,10.66
2019-02-28T12:51:51.076Z,10.79
2019-02-28T12:53:59.241Z,10.93
2019-02-28T12:56:07.539Z,10.95
2019-02-28T12:58:15.710Z,10.75
2019-02-28T13:00:41.365Z,10.41
2019-02-28T13:02:49.143Z,10.51
2019-02-28T13:04:56.960Z,10.60
2019-02-28T13:07:04.576Z,10.86
2019-02-28T13:09:13.693Z,10.70
2019-02-28T13:11:22.205Z,10.55
2019-02-28T13:13:29.919Z,10.48
2019-02-28T13:15:38.086Z,10.46
2019-02-28T13:17:46.092Z,10.54
2019-02-28T13:19:56.640Z,10.62
2019-02-28T13:22:03.594Z,10.44
2019-02-28T13:24:11.302Z,10.36
2019-02-28T13:26:19.254Z,10.47
2019-02-28T13:28:27.116Z,10.40
2019-02-28T13:30:34.826Z,10.55
2019-02-28T13:32:42.629Z,10.38
2019-02-28T13:34:50.598Z,10.22
2019-02-28T13:37:01.740Z,10.16
2019-02-28T13:39:10.057Z,10.17
2019-02-28T13:41:18.377Z,10.19
2019-02-28T13:43:27.203Z,10.18
2019-02-28T13:45:34.897Z,10.35
2019-02-28T13:47:46.293Z,10.40
2019-02-28T13:49:52.225Z,10.41
2019-02-28T13:52:00.003Z,10.37
2019-02-28T13:54:07.904Z,10.26
2019-02-28T13:56:15.582Z,10.12
2019-02-28T13:58:23.398Z,10.10
2019-02-28T14:00:31.733Z,10.06
2019-02-28T14:02:39.570Z,9.98
2019-02-28T14:04:47.498Z,9.83
2019-02-28T14:06:56.733Z,9.72
2019-02-28T14:09:06.559Z,9.70
2019-02-28T14:11:14.739Z,9.74
2019-02-28T14:13:23.441Z,9.66
2019-02-28T14:15:38.776Z,9.54
2019-02-28T14:17:46.652Z,9.54
2019-02-28T14:19:54.991Z,9.61
2019-02-28T14:22:02.727Z,9.65
2019-02-28T14:24:10.846Z,9.71
2019-02-28T14:26:18.897Z,9.74
2019-02-28T14:28:27.337Z,9.82
2019-02-28T14:30:36.380Z,9.80
2019-02-28T14:32:45.542Z,9.76
2019-02-28T14:34:53.433Z,9.68
2019-02-28T14:37:02.442Z,9.64
2019-02-28T14:39:14.193Z,9.72
2019-02-28T14:41:24.651Z,9.66
2019-02-28T14:43:32.865Z,9.68
2019-02-28T14:45:43.793Z,9.68
2019-02-28T14:47:56.827Z,9.67
2019-02-28T14:50:02.659Z,9.65
2019-02-28T14:52:10.333Z,9.62
2019-02-28T14:54:18.506Z,9.60
2019-02-28T14:56:26.326Z,9.64
2019-02-28T14:58:34.192Z,9.61
2019-02-28T15:00:43.465Z,9.60
2019-02-28T15:02:51.535Z,9.55
2019-02-28T15:04:59.432Z,9.59
2019-02-28T15:07:07.311Z,9.56
2019-02-28T15:09:19.727Z,9.50
2019-02-28T15:11:27.683Z,9.50
2019-02-28T15:13:35.563Z,9.48
2019-02-28T15:15:43.468Z,9.54
2019-02-28T15:17:51.655Z,9.53
2019-02-28T15:19:59.681Z,9.52
2019-02-28T15:22:07.384Z,9.48
2019-02-28T15:24:15.309Z,9.47
2019-02-28T15:26:23.427Z,9.48
2019-02-28T15:28:31.119Z,9.42
2019-02-28T15:30:39.465Z,9.37
2019-02-28T15:32:50.595Z,9.30
2019-02-28T15:35:05.317Z,9.30
2019-02-28T15:37:20.864Z,9.25
2019-02-28T15:39:33.014Z,9.18
2019-02-28T15:41:45.785Z,9.17
2019-02-28T15:44:01.139Z,9.10
2019-02-28T15:46:12.026Z,9.01
2019-02-28T15:48:21.365Z,8.90
2019-02-28T15:50:30.958Z,8.89
2019-02-28T15:52:39.414Z,8.82
2019-02-28T15:54:50.414Z,8.80
2019-02-28T15:57:04.668Z,8.76
2019-02-28T15:59:14.772Z,8.69
2019-02-28T16:01:25.269Z,8.67
2019-02-28T16:03:33.923Z,8.64
2019-02-28T16:05:44.061Z,8.59
2019-02-28T16:07:52.137Z,8.54
2019-02-28T16:10:00.333Z,8.48
2019-02-28T16:12:08.896Z,8.42
2019-02-28T16:14:17.461Z,8.46
2019-02-28T16:16:26.811Z,8.40
2019-02-28T16:18:35.327Z,8.31
2019-02-28T16:20:43.287Z,8.27
2019-02-28T16:22:53.283Z,8.18
2019-02-28T16:25:01.947Z,8.17
2019-02-28T16:27:10.267Z,8.17
2019-02-28T16:29:20.608Z,8.06
2019-02-28T16:31:29.364Z,8.05
2019-02-28T16:33:38.610Z,8.13
2019-02-28T16:35:50.258Z,8.05
2019-02-28T16:37:58.859Z,8.02
2019-02-28T16:40:08.662Z,8.01
2019-02-28T16:42:17.914Z,7.91
2019-02-28T16:44:27.590Z,7.89
2019-02-28T16:46:36.296Z,7.81
2019-02-28T16:48:44.462Z,7.82
2019-02-28T16:50:53.774Z,7.86
2019-02-28T16:53:02.255Z,7.78
2019-02-28T16:55:10.502Z,7.71
2019-02-28T16:57:18.380Z,7.67
2019-02-28T16:59:28.404Z,7.64
2019-02-28T17:01:36.405Z,7.63
2019-02-28T17:03:45.729Z,7.55
2019-02-28T17:05:53.711Z,7.61
2019-02-28T17:08:02.150Z,7.56
2019-02-28T17:10:12.858Z,7.54
2019-02-28T17:12:42.927Z,7.45
2019-02-28T17:14:51.620Z,7.44
2019-02-28T17:17:04.819Z,7.39
2019-02-28T17:19:13.021Z,7.31
2019-02-28T17:21:21.158Z,7.13
2019-02-28T17:23:29.293Z,7.03
2019-02-28T17:25:37.559Z,7.04
2019-02-28T17:27:57.025Z,6.96
2019-02-28T17:30:17.104Z,7.06
2019-02-28T17:32:28.000Z,6.96
2019-02-28T17:34:36.799Z,7.12
2019-02-28T17:36:47.674Z,7.00
2019-02-28T17:38:54.817Z,6.90
2019-02-28T17:41:02.808Z,6.95
2019-02-28T17:43:10.702Z,6.87
2019-02-28T17:45:26.848Z,6.80
2019-02-28T17:48:34.974Z,6.77
2019-02-28T17:51:27.406Z,6.82
2019-02-28T17:54:09.349Z,6.74
2019-02-28T17:57:10.673Z,6.76
2019-02-28T18:00:33.491Z,6.65
2019-02-28T18:03:18.469Z,6.68
2019-02-28T18:06:24.824Z,6.48
2019-02-28T18:09:32.218Z,6.59
2019-02-28T18:12:54.815Z,6.56
2019-02-28T18:15:42.131Z,6.50
2019-02-28T18:18:51.718Z,6.46
2019-02-28T18:21:56.065Z,6.39
2019-02-28T18:25:22.242Z,6.45
2019-02-28T18:28:32.633Z,6.43
2019-02-28T18:31:19.088Z,6.25
2019-02-28T18:33:28.015Z,6.17
2019-02-28T18:35:36.498Z,6.21
2019-02-28T18:37:45.586Z,6.20
2019-02-28T18:39:55.393Z,6.21
2019-02-28T18:42:03.439Z,6.27
2019-02-28T18:44:11.692Z,6.21
2019-02-28T18:46:19.705Z,6.11
2019-02-28T18:48:28.370Z,5.99
2019-02-28T18:50:38.265Z,5.95
2019-02-28T18:52:47.221Z,6.04
2019-02-28T18:55:05.966Z,6.09
2019-02-28T18:57:09.775Z,6.03
2019-02-28T18:59:19.371Z,5.97
2019-02-28T19:01:29.017Z,5.96
2019-02-28T19:03:37.297Z,5.97
2019-02-28T19:05:50.428Z,5.90
2019-02-28T19:07:56.150Z,5.84
2019-02-28T19:10:05.646Z,5.92
2019-02-28T19:12:14.170Z,5.80
2019-02-28T19:14:24.304Z,5.68
2019-02-28T19:16:32.521Z,5.73
2019-02-28T19:18:40.811Z,5.68
2019-02-28T19:20:49.766Z,5.84
2019-02-28T19:22:59.051Z,5.74
2019-02-28T19:25:14.916Z,5.77
2019-02-28T19:27:17.072Z,5.80
2019-02-28T19:29:45.710Z,5.65
2019-02-28T19:31:56.583Z,5.75
2019-02-28T19:34:06.024Z,5.65
2019-02-28T19:36:14.326Z,5.70
2019-02-28T19:38:24.332Z,5.63
2019-02-28T19:40:32.300Z,5.67
2019-02-28T19:42:40.602Z,5.58
2019-02-28T19:44:48.723Z,5.58
2019-02-28T19:46:56.665Z,5.59
2019-02-28T19:49:05.363Z,5.61
2019-02-28T19:51:14.219Z,5.47
2019-02-28T19:53:22.835Z,5.59
2019-02-28T19:55:31.066Z,5.62
2019-02-28T19:57:39.417Z,5.69
2019-02-28T19:59:47.609Z,5.60
2019-02-28T20:01:55.675Z,5.71
2019-02-28T20:04:03.576Z,5.60
2019-02-28T20:06:29.438Z,5.60
2019-02-28T20:08:37.469Z,5.64
2019-02-28T20:10:47.113Z,5.68
2019-02-28T20:12:55.834Z,5.65
2019-02-28T20:15:04.024Z,5.67
2019-02-28T20:17:13.113Z,5.62
2019-02-28T20:19:21.604Z,5.57
2019-02-28T20:21:30.355Z,5.60
2019-02-28T20:23:39.032Z,5.54
2019-02-28T20:25:50.076Z,5.54
2019-02-28T20:27:58.207Z,5.42
2019-02-28T20:30:07.040Z,5.41
2019-02-28T20:32:15.113Z,5.32
2019-02-28T20:34:23.296Z,5.29
2019-02-28T20:36:31.278Z,5.39
2019-02-28T20:38:39.256Z,5.26
2019-02-28T20:40:47.277Z,5.32
2019-02-28T20:42:55.498Z,5.34
2019-02-28T20:45:03.579Z,5.19
2019-02-28T20:47:11.446Z,5.14
2019-02-28T20:49:19.668Z,5.17
2019-02-28T20:51:28.101Z,5.21
2019-02-28T20:53:35.991Z,5.13
2019-02-28T20:55:44.381Z,5.16
2019-02-28T20:57:52.195Z,5.12
2019-02-28T21:00:00.472Z,5.05
2019-02-28T21:02:08.468Z,5.03
2019-02-28T21:04:16.562Z,5.04
2019-02-28T21:06:24.551Z,4.91
2019-02-28T21:08:32.535Z,4.76
2019-02-28T21:10:48.138Z,4.71
2019-02-28T21:12:57.920Z,4.64
2019-02-28T21:15:10.561Z,4.31
2019-02-28T21:17:33.674Z,4.30
2019-02-28T21:19:41.356Z,4.30
2019-02-28T21:21:50.804Z,4.28
2019-02-28T21:24:00.776Z,4.11
2019-02-28T21:26:10.927Z,4.24
2019-02-28T21:28:18.717Z,3.90
2019-02-28T21:30:26.849Z,3.81
2019-02-28T21:32:34.683Z,3.64
2019-02-28T21:34:42.625Z,3.73
2019-02-28T21:36:50.590Z,3.55
2019-02-28T21:38:58.430Z,3.66
2019-02-28T21:41:06.550Z,3.94
2019-02-28T21:43:14.451Z,3.94
2019-02-28T21:45:22.407Z,3.89
2019-02-28T21:47:30.119Z,3.81
2019-02-28T21:49:37.879Z,3.54
2019-02-28T21:51:45.476Z,3.51
2019-02-28T21:53:53.291Z,3.60
2019-02-28T21:56:01.121Z,3.48
2019-02-28T21:58:08.924Z,3.30
2019-02-28T22:00:22.801Z,3.50
2019-02-28T22:02:30.760Z,3.58
2019-02-28T22:04:38.619Z,3.50
2019-02-28T22:06:46.247Z,3.37
2019-02-28T22:08:53.923Z,3.66
2019-02-28T22:11:02.707Z,3.52
2019-02-28T22:13:10.384Z,3.53
2019-02-28T22:15:19.076Z,3.60
2019-02-28T22:17:26.776Z,3.75
2019-02-28T22:19:34.266Z,3.38
2019-02-28T22:21:42.043Z,3.48
2019-02-28T22:23:49.732Z,3.50
2019-02-28T22:25:57.670Z,3.52
2019-02-28T22:28:05.557Z,3.34
2019-02-28T22:30:51.005Z,3.35
2019-02-28T22:33:00.314Z,3.33
2019-02-28T22:35:17.090Z,3.28
2019-02-28T22:37:24.944Z,3.27
2019-02-28T22:39:32.821Z,3.20
2019-02-28T22:41:40.793Z,3.21
2019-02-28T22:43:48.494Z,3.03
2019-02-28T22:45:56.760Z,3.16
2019-02-28T22:48:04.771Z,3.23
2019-02-28T22:50:12.576Z,3.24
2019-02-28T22:52:20.370Z,3.22
2019-02-28T22:54:28.091Z,2.89
2019-02-28T22:56:36.138Z,3.13
2019-02-28T22:58:44.127Z,3.12
2019-02-28T23:01:09.432Z,3.17
2019-02-28T23:03:17.119Z,2.94
2019-02-28T23:05:25.039Z,3.13
2019-02-28T23:07:32.727Z,2.99
2019-02-28T23:09:40.483Z,2.90
2019-02-28T23:11:48.069Z,2.97
2019-02-28T23:13:55.841Z,2.98
2019-02-28T23:16:03.740Z,2.82
2019-02-28T23:18:11.596Z,2.82
2019-02-28T23:20:19.322Z,3.06
2019-02-28T23:22:33.512Z,2.91
2019-02-28T23:24:41.232Z,2.79
2019-02-28T23:27:19.503Z,2.68
2019-02-28T23:29:29.738Z,2.63
2019-02-28T23:32:30.673Z,2.72
2019-02-28T23:34:51.413Z,2.70
2019-02-28T23:36:59.007Z,2.60
2019-02-28T23:39:08.989Z,2.90
2019-02-28T23:41:16.741Z,2.55
2019-02-28T23:43:24.542Z,2.79
2019-02-28T23:45:32.289Z,2.83
2019-02-28T23:47:40.063Z,2.52
2019-02-28T23:49:47.727Z,2.72
2019-02-28T23:51:55.487Z,2.62
2019-02-28T23:54:02.885Z,2.42
2019-02-28T23:56:10.732Z,2.52
2019-02-28T23:58:18.406Z,2.52
